Flight Track Log - Related Links

Times and Time Zones

All times are in EST time to prevent confusion due to time zone crossing. See the FRG2070 flight status page for this flight to view local times or setup timezone preferences in your user account.

Time Position Orientation Groundspeed Altitude Reporting Facility
EST Latitude Longitude Course Direction KTS MPH feet Rate Location/Type
Tue 05:46:01 AM 43.9106 -92.4997 316° Northwest 3 3 1,400  Level Minneapolis Center
Tue 05:47:01 AM 43.9258 -92.5206 316° Northwest 71 82 2,200 850 Climbing Minneapolis Center
Tue 05:48:01 AM 43.9447 -92.5286 343° North 73 84 3,100 843 Climbing Minneapolis Center
Tue 05:49:02 AM 43.9603 -92.5389 335° Northwest 65 75 3,900 496 Climbing Minneapolis Center
Tue 05:50:02 AM 43.9797 -92.5472 343° North 71 82 4,100 50 Climbing Minneapolis Center
Tue 05:51:02 AM 44.0042 -92.5606 339° North 90 104 4,000 -50 Descending Minneapolis Center
Tue 05:52:03 AM 44.0297 -92.5731 341° North 92 106 4,000 50 Level Minneapolis Center
Tue 05:53:03 AM 44.0542 -92.5853 340° North 93 107 4,100 50 Climbing Minneapolis Center
Tue 05:54:03 AM 44.0789 -92.5981 340° North 95 109 4,100 -50 Level Minneapolis Center
Tue 05:55:03 AM 44.1017 -92.6125 336° Northwest 92 106 4,000 -50 Descending Minneapolis Center
Tue 05:56:04 AM 44.1261 -92.6272 337° Northwest 95 109 4,000  Level Minneapolis Center
Tue 05:57:04 AM 44.1500 -92.6408 338° Northwest 94 108 4,000 50 Level Minneapolis Center
Tue 05:58:04 AM 44.1750 -92.6550 338° Northwest 92 106 4,100 50 Climbing Minneapolis Center
Tue 05:59:04 AM 44.1994 -92.6692 337° Northwest 94 108 4,100  Level Minneapolis Center
Tue 06:00:05 AM 44.2231 -92.6828 338° Northwest 94 108 4,100 -50 Level Minneapolis Center
Tue 06:01:05 AM 44.2469 -92.6956 339° North 94 108 4,000 -50 Descending Minneapolis Center
Tue 06:02:06 AM 44.2714 -92.7103 337° Northwest 96 110 4,000 50 Level Minneapolis Center
Tue 06:03:06 AM 44.2961 -92.7239 338° Northwest 92 106 4,100  Climbing Minneapolis Center
Tue 06:04:06 AM 44.3219 -92.7369 340° North 96 110 4,000  Descending Minneapolis Center
Tue 06:05:06 AM 44.3461 -92.7458 345° North 101 116 4,100 50 Climbing Minneapolis Center
Tue 06:06:07 AM 44.3706 -92.7569 342° North 93 107 4,100  Level Minneapolis Center
Tue 06:07:07 AM 44.3975 -92.7686 343° North 100 115 4,100  Level Minneapolis Center
Tue 06:08:07 AM 44.4247 -92.7792 345° North 101 116 4,100  Level Minneapolis Center
Tue 06:09:08 AM 44.4494 -92.7906 342° North 96 110 4,100 -50 Level Minneapolis Center
Tue 06:10:08 AM 44.4744 -92.8078 334° Northwest 98 113 4,000  Descending Minneapolis Center
Tue 06:11:08 AM 44.5000 -92.8192 342° North 95 109 4,100  Climbing Minneapolis Center
Tue 06:12:09 AM 44.5267 -92.8311 342° North 101 116 4,000 -50 Descending Minneapolis Center
Tue 06:13:09 AM 44.5539 -92.8433 342° North 104 120 4,000  Level Minneapolis Center
Tue 06:14:09 AM 44.5797 -92.8564 340° North 99 114 4,000 -200 Level Minneapolis Center
Tue 06:15:09 AM 44.6097 -92.8631 351° North 109 125 3,600 -496 Descending Minneapolis Center
Tue 06:16:10 AM 44.6422 -92.8708 350° North 117 135 3,000 -298 Descending Minneapolis Center
Tue 06:17:10 AM 44.6708 -92.8747 354° North 106 122 3,000  Level Minneapolis Center
Tue 06:18:10 AM 44.7003 -92.8769 357° North 105 121 3,000  Level Minneapolis Center
Tue 06:19:11 AM 44.7297 -92.8797 356° North 107 123 3,000  Level Minneapolis Center
Tue 06:20:11 AM 44.7592 -92.8972 337° Northwest 96 110 3,000 50 Level Minneapolis Center
Tue 06:21:11 AM 44.7817 -92.9158 330° Northwest 95 109 3,100 50 Climbing Minneapolis Center
Tue 06:22:12 AM 44.8042 -92.9361 327° Northwest 96 110 3,100  Level Minneapolis Center
Tue 06:23:12 AM 44.8267 -92.9575 326° Northwest 97 112 3,100 -150 Level Minneapolis Center
Tue 06:24:12 AM 44.8494 -92.9817 323° Northwest 102 117 2,800 -496 Descending Minneapolis Center
Tue 06:25:13 AM 44.8744 -93.0050 327° Northwest 107 123 2,100 -645 Descending Minneapolis Center
Tue 06:26:13 AM 44.8986 -93.0267 328° Northwest 104 120 1,500 -450 Descending Minneapolis Center
Tue 06:27:13 AM 44.9186 -93.0456 326° Northwest 102 117 1,200 -300 Descending Minneapolis Center
Tue 06:29:00 AM 44.9333 -93.0500 347° North  Level FlightAware Approximate
Tue 06:36:00 AM 44.9346 -93.0603 347° North  Level Estimated

Login

Don't have an account? Register now (free) for customized features, flight alerts, and more!